createdAt,value
2023-04-22T00:00:17.601Z,44.27
2023-04-22T00:03:27.352Z,44.69
2023-04-22T00:06:33.143Z,44.85
2023-04-22T00:09:39.783Z,45.23
2023-04-22T00:12:45.745Z,44.15
2023-04-22T00:15:52.147Z,45.08
2023-04-22T00:19:00.487Z,45.78
2023-04-22T00:22:07.319Z,44.69
2023-04-22T00:25:13.137Z,45.92
2023-04-22T00:28:19.711Z,44.89
2023-04-22T00:31:25.226Z,45.17
2023-04-22T00:34:34.379Z,45.25
2023-04-22T00:37:40.021Z,46.07
2023-04-22T00:40:46.728Z,45.41
2023-04-22T00:43:53.802Z,46.24
2023-04-22T00:47:00.966Z,45.87
2023-04-22T00:50:12.059Z,46.54
2023-04-22T00:53:18.405Z,46.60
2023-04-22T00:56:28.654Z,46.69
2023-04-22T00:59:35.513Z,46.74
2023-04-22T01:02:42.169Z,46.98
2023-04-22T01:05:53.137Z,46.05
2023-04-22T01:09:00.070Z,46.31
2023-04-22T01:12:06.598Z,46.11
2023-04-22T01:15:13.185Z,47.07
2023-04-22T01:18:20.719Z,46.69
2023-04-22T01:21:33.878Z,47.39
2023-04-22T01:24:43.802Z,47.76
2023-04-22T01:27:49.625Z,47.11
2023-04-22T01:30:56.552Z,47.41
2023-04-22T01:34:03.245Z,47.31
2023-04-22T01:37:10.965Z,47.00
2023-04-22T01:40:22.861Z,48.09
2023-04-22T01:43:30.992Z,47.49
2023-04-22T01:46:37.348Z,47.82
2023-04-22T01:49:45.941Z,47.95
2023-04-22T01:52:51.786Z,48.49
2023-04-22T01:56:00.925Z,48.10
2023-04-22T01:59:06.452Z,47.97
2023-04-22T02:02:16.150Z,48.58
2023-04-22T02:05:21.953Z,48.28
2023-04-22T02:08:28.355Z,48.76
2023-04-22T02:11:36.677Z,48.55
2023-04-22T02:14:42.993Z,49.03
2023-04-22T02:17:48.935Z,48.93
2023-04-22T02:20:55.308Z,49.41
2023-04-22T02:24:00.876Z,49.26
2023-04-22T02:27:10.943Z,49.76
2023-04-22T02:30:17.025Z,49.95
2023-04-22T02:33:23.733Z,50.55
2023-04-22T02:36:32.145Z,51.17
2023-04-22T02:39:38.936Z,51.16
2023-04-22T02:42:48.917Z,51.01
2023-04-22T02:45:55.598Z,51.30
2023-04-22T02:49:01.364Z,51.33
2023-04-22T02:52:08.203Z,51.65
2023-04-22T02:55:13.859Z,51.79
2023-04-22T02:58:23.222Z,51.81
2023-04-22T03:01:28.791Z,52.18
2023-04-22T03:04:39.540Z,52.29
2023-04-22T03:07:45.189Z,52.23
2023-04-22T03:10:51.906Z,52.08
2023-04-22T03:14:00.383Z,52.36
2023-04-22T03:17:07.265Z,52.34
2023-04-22T03:20:15.350Z,52.17
2023-04-22T03:23:22.049Z,52.25
2023-04-22T03:26:27.595Z,52.33
2023-04-22T03:29:36.825Z,52.56
2023-04-22T03:32:42.417Z,52.47
2023-04-22T03:35:58.363Z,52.60
2023-04-22T03:39:04.280Z,52.68
2023-04-22T03:42:15.715Z,52.77
2023-04-22T03:45:25.539Z,52.88
2023-04-22T03:48:49.477Z,53.08
2023-04-22T03:52:04.567Z,53.03
2023-04-22T03:55:13.375Z,53.20
2023-04-22T03:58:19.249Z,53.16
2023-04-22T04:01:29.794Z,52.82
2023-04-22T04:04:38.897Z,53.46
2023-04-22T04:07:47.258Z,53.24
2023-04-22T04:10:52.997Z,53.32
2023-04-22T04:13:59.427Z,53.57
2023-04-22T04:17:14.348Z,53.86
2023-04-22T04:20:21.216Z,54.01
2023-04-22T04:23:27.442Z,54.23
2023-04-22T04:26:34.901Z,54.11
2023-04-22T04:30:05.006Z,54.31
2023-04-22T04:33:20.327Z,54.25
2023-04-22T04:36:29.524Z,54.08
2023-04-22T04:39:46.643Z,54.30
2023-04-22T04:42:55.924Z,54.11
2023-04-22T04:46:06.756Z,54.27
2023-04-22T04:49:17.622Z,54.21
2023-04-22T04:52:32.711Z,53.95
2023-04-22T04:55:38.505Z,53.73
2023-04-22T04:58:51.346Z,53.70
2023-04-22T05:02:00.903Z,53.41
2023-04-22T05:05:13.644Z,53.48
2023-04-22T05:08:21.262Z,53.27
2023-04-22T05:11:29.602Z,53.35
2023-04-22T05:14:36.864Z,52.99
2023-04-22T05:17:43.573Z,53.22
2023-04-22T05:20:52.331Z,52.39
2023-04-22T05:24:01.780Z,51.88
2023-04-22T05:27:08.403Z,51.98
2023-04-22T05:30:15.771Z,51.01
2023-04-22T05:33:21.312Z,51.25
2023-04-22T05:36:32.181Z,50.04
2023-04-22T05:39:38.751Z,50.05
2023-04-22T05:42:48.724Z,50.08
2023-04-22T05:45:54.575Z,49.79
2023-04-22T05:49:01.600Z,49.90
2023-04-22T05:53:03.136Z,48.50
2023-04-22T05:56:09.973Z,48.12
2023-04-22T05:59:16.286Z,48.52
2023-04-22T06:02:23.177Z,47.74
2023-04-22T06:05:28.971Z,47.67
2023-04-22T06:08:39.821Z,47.66
2023-04-22T06:11:45.532Z,46.42
2023-04-22T06:14:51.877Z,46.03
2023-04-22T06:17:57.508Z,46.92
2023-04-22T06:21:03.852Z,46.39
2023-04-22T06:24:12.473Z,46.12
2023-04-22T06:27:21.874Z,44.82
2023-04-22T06:30:27.822Z,45.02
2023-04-22T06:33:35.172Z,45.45
2023-04-22T06:36:40.986Z,44.67
2023-04-22T06:39:50.204Z,45.21
2023-04-22T06:43:39.510Z,44.62
2023-04-22T06:46:46.268Z,44.22
2023-04-22T06:50:12.914Z,44.45
2023-04-22T06:53:52.793Z,43.91
2023-04-22T06:57:01.901Z,43.90
2023-04-22T07:00:15.551Z,43.47
2023-04-22T07:03:41.084Z,42.92
2023-04-22T07:06:50.648Z,42.51
2023-04-22T07:09:56.292Z,42.03
2023-04-22T07:13:09.333Z,41.46
2023-04-22T07:16:14.893Z,41.22
2023-04-22T07:19:21.252Z,40.78
2023-04-22T07:22:26.748Z,40.72
2023-04-22T07:25:33.150Z,39.98
2023-04-22T07:28:41.474Z,39.36
2023-04-22T07:31:47.971Z,38.87
2023-04-22T07:34:53.472Z,39.12
2023-04-22T07:37:59.913Z,38.52
2023-04-22T07:41:05.401Z,38.63
2023-04-22T07:44:18.766Z,37.85
2023-04-22T07:47:24.356Z,37.65
2023-04-22T07:50:31.022Z,37.22
2023-04-22T07:53:36.765Z,36.65
2023-04-22T07:56:43.054Z,36.76
2023-04-22T07:59:51.387Z,36.26
2023-04-22T08:02:57.887Z,35.48
2023-04-22T08:06:03.510Z,34.77
2023-04-22T08:09:10.820Z,34.48
2023-04-22T08:12:16.507Z,33.54
2023-04-22T08:15:25.877Z,32.70
2023-04-22T08:18:31.396Z,33.63
2023-04-22T08:21:37.735Z,33.44
2023-04-22T08:24:43.247Z,33.26
2023-04-22T08:27:49.548Z,32.50
2023-04-22T08:30:57.854Z,32.95
2023-04-22T08:34:04.442Z,32.83
2023-04-22T08:37:10.166Z,32.39
2023-04-22T08:40:16.853Z,31.52
2023-04-22T08:43:23.605Z,31.53
2023-04-22T08:46:34.904Z,31.79
2023-04-22T08:49:41.619Z,30.87
2023-04-22T08:52:48.410Z,30.71
2023-04-22T08:55:55.340Z,32.10
2023-04-22T08:59:02.165Z,31.62
2023-04-22T09:02:16.904Z,31.69
2023-04-22T09:05:28.368Z,32.05
2023-04-22T09:08:34.545Z,31.88
2023-04-22T09:11:41.630Z,31.29
2023-04-22T09:14:48.682Z,31.89
2023-04-22T09:17:58.834Z,31.89
2023-04-22T09:21:04.751Z,32.26
2023-04-22T09:24:14.134Z,31.53
2023-04-22T09:27:21.387Z,32.01
2023-04-22T09:30:30.790Z,32.46
2023-04-22T09:33:42.655Z,32.86
2023-04-22T09:36:49.602Z,32.26
2023-04-22T09:39:56.481Z,32.12
2023-04-22T09:43:06.847Z,32.47
2023-04-22T09:46:13.651Z,31.68
2023-04-22T09:49:24.959Z,32.26
2023-04-22T09:52:30.382Z,32.18
2023-04-22T09:55:41.723Z,32.18
2023-04-22T09:58:47.135Z,32.11
2023-04-22T10:01:56.618Z,31.52
2023-04-22T10:05:05.077Z,32.19
2023-04-22T10:08:13.670Z,31.46
2023-04-22T10:11:19.203Z,31.47
2023-04-22T10:14:26.448Z,31.98
2023-04-22T10:17:36.485Z,31.75
2023-04-22T10:20:49.019Z,32.05
2023-04-22T10:23:54.888Z,31.77
2023-04-22T10:27:06.792Z,31.98
2023-04-22T10:30:15.025Z,31.60
2023-04-22T10:33:45.011Z,31.38
2023-04-22T10:37:03.597Z,31.29
2023-04-22T10:40:19.128Z,31.54
2023-04-22T10:43:45.291Z,32.08
2023-04-22T10:47:04.598Z,31.76
2023-04-22T10:50:21.899Z,31.68
2023-04-22T10:53:44.229Z,31.68
2023-04-22T10:57:05.289Z,32.01
2023-04-22T11:00:53.071Z,31.13
2023-04-22T11:04:23.797Z,31.41
2023-04-22T11:07:35.971Z,30.54
2023-04-22T11:10:48.234Z,30.89
2023-04-22T11:13:55.856Z,31.20
2023-04-22T11:17:01.408Z,30.50
2023-04-22T11:20:11.165Z,30.17
2023-04-22T11:23:22.952Z,29.77
2023-04-22T11:26:41.248Z,30.37
2023-04-22T11:29:46.676Z,30.14
2023-04-22T11:32:55.610Z,30.18
2023-04-22T11:36:01.266Z,29.96
2023-04-22T11:39:15.344Z,29.92
2023-04-22T11:42:26.794Z,29.83
2023-04-22T11:45:35.282Z,29.75
2023-04-22T11:48:40.822Z,29.29
2023-04-22T11:52:00.402Z,29.22
2023-04-22T11:55:06.333Z,29.58
2023-04-22T11:58:18.732Z,29.10
2023-04-22T12:01:24.157Z,29.20
2023-04-22T12:04:30.421Z,29.59
2023-04-22T12:07:36.301Z,29.95
2023-04-22T12:10:46.235Z,29.62
2023-04-22T12:13:54.640Z,29.09
2023-04-22T12:17:00.949Z,28.39
2023-04-22T12:20:08.365Z,28.41
2023-04-22T12:23:18.917Z,28.05
2023-04-22T12:26:27.968Z,27.89
2023-04-22T12:29:37.850Z,28.29
2023-04-22T12:32:43.411Z,28.12
2023-04-22T12:35:52.825Z,28.59
2023-04-22T12:38:58.308Z,27.25
2023-04-22T12:42:06.083Z,26.63
2023-04-22T12:45:16.492Z,27.65
2023-04-22T12:48:23.055Z,27.52
2023-04-22T12:51:28.508Z,28.29
2023-04-22T12:54:34.888Z,26.54
2023-04-22T12:57:40.568Z,27.08
2023-04-22T13:00:49.810Z,26.88
2023-04-22T13:03:55.408Z,27.00
2023-04-22T13:07:02.006Z,27.20
2023-04-22T13:10:09.557Z,27.21
2023-04-22T13:13:18.875Z,27.88
2023-04-22T13:16:27.971Z,27.66
2023-04-22T13:19:35.539Z,28.34
2023-04-22T13:22:41.643Z,27.38
2023-04-22T13:25:48.240Z,27.31
2023-04-22T13:28:53.734Z,27.21
2023-04-22T13:32:02.823Z,26.81
2023-04-22T13:35:09.758Z,26.31
2023-04-22T13:38:16.383Z,25.00
2023-04-22T13:41:21.874Z,24.63
2023-04-22T13:44:28.322Z,25.32
2023-04-22T13:47:36.823Z,26.07
2023-04-22T13:50:43.807Z,25.92
2023-04-22T13:53:49.265Z,25.93
2023-04-22T13:56:56.468Z,26.05
2023-04-22T14:00:02.618Z,25.96
2023-04-22T14:03:20.944Z,25.47
2023-04-22T14:06:27.351Z,25.16
2023-04-22T14:09:34.831Z,24.83
2023-04-22T14:12:40.293Z,24.19
2023-04-22T14:15:46.652Z,24.69
2023-04-22T14:18:56.172Z,24.32
2023-04-22T14:22:02.591Z,24.47
2023-04-22T14:25:09.591Z,24.38
2023-04-22T14:28:16.911Z,24.34
2023-04-22T14:31:24.607Z,23.66
2023-04-22T14:34:34.086Z,23.68
2023-04-22T14:37:41.676Z,24.22
2023-04-22T14:40:48.122Z,24.21
2023-04-22T14:43:53.781Z,24.18
2023-04-22T14:47:00.140Z,23.78
2023-04-22T14:50:10.038Z,24.12
2023-04-22T14:53:16.651Z,24.28
2023-04-22T14:56:23.246Z,23.66
2023-04-22T14:59:29.569Z,23.63
2023-04-22T15:02:35.719Z,23.38
2023-04-22T15:05:49.651Z,23.41
2023-04-22T15:08:56.197Z,23.80
2023-04-22T15:12:05.225Z,23.57
2023-04-22T15:15:13.533Z,23.64
2023-04-22T15:18:20.020Z,23.72
2023-04-22T15:21:28.395Z,24.70
2023-04-22T15:24:34.766Z,23.63
2023-04-22T15:27:41.685Z,23.74
2023-04-22T15:30:48.942Z,23.85
2023-04-22T15:33:54.963Z,23.85
2023-04-22T15:37:04.689Z,24.45
2023-04-22T15:40:12.186Z,23.62
2023-04-22T15:43:18.514Z,22.63
2023-04-22T15:46:25.088Z,22.29
2023-04-22T15:49:31.579Z,22.52
2023-04-22T15:52:41.625Z,21.57
2023-04-22T15:55:48.790Z,21.38
2023-04-22T15:58:56.060Z,20.29
2023-04-22T16:02:02.686Z,20.38
2023-04-22T16:05:09.504Z,19.82
2023-04-22T16:08:19.292Z,19.41
2023-04-22T16:11:24.997Z,19.72
2023-04-22T16:14:31.389Z,18.65
2023-04-22T16:17:37.353Z,18.42
2023-04-22T16:20:44.511Z,19.08
2023-04-22T16:23:52.919Z,18.60
2023-04-22T16:26:59.610Z,18.07
2023-04-22T16:30:05.933Z,18.56
2023-04-22T16:33:12.580Z,17.78
2023-04-22T16:36:18.261Z,17.59
2023-04-22T16:39:27.622Z,17.91
2023-04-22T16:42:33.270Z,17.72
2023-04-22T16:45:39.564Z,18.09
2023-04-22T16:48:45.300Z,18.10
2023-04-22T16:51:52.485Z,19.14
2023-04-22T16:55:00.921Z,18.40
2023-04-22T16:58:07.512Z,18.83
2023-04-22T17:01:13.684Z,19.03
2023-04-22T17:04:21.549Z,19.80
2023-04-22T17:07:27.102Z,20.18
2023-04-22T17:10:41.540Z,20.18
2023-04-22T17:13:47.039Z,21.23
2023-04-22T17:16:54.293Z,22.11
2023-04-22T17:19:59.986Z,22.12
2023-04-22T17:23:07.530Z,22.87
2023-04-22T17:26:15.889Z,22.87
2023-04-22T17:29:23.415Z,23.87
2023-04-22T17:32:29.263Z,23.55
2023-04-22T17:35:35.661Z,24.06
2023-04-22T17:38:41.370Z,23.65
2023-04-22T17:41:51.109Z,24.36
2023-04-22T17:44:56.829Z,23.48
2023-04-22T17:48:03.795Z,23.73
2023-04-22T17:51:10.425Z,24.22
2023-04-22T17:54:17.056Z,24.25
2023-04-22T17:57:25.271Z,25.44
2023-04-22T18:00:32.522Z,26.03
2023-04-22T18:03:39.164Z,26.98
2023-04-22T18:06:45.694Z,27.56
2023-04-22T18:09:51.609Z,28.21
2023-04-22T18:13:01.024Z,28.49
2023-04-22T18:16:06.735Z,28.87
2023-04-22T18:19:13.253Z,29.92
2023-04-22T18:22:18.849Z,29.82
2023-04-22T18:25:26.231Z,30.50
2023-04-22T18:28:34.550Z,30.58
2023-04-22T18:31:41.168Z,30.56
2023-04-22T18:34:46.894Z,31.40
2023-04-22T18:37:53.258Z,30.88
2023-04-22T18:40:59.296Z,31.52
2023-04-22T18:44:09.302Z,31.80
2023-04-22T18:47:14.775Z,31.77
2023-04-22T18:50:22.552Z,31.86
2023-04-22T18:53:28.098Z,32.46
2023-04-22T18:56:34.681Z,32.76
2023-04-22T18:59:43.185Z,32.85
2023-04-22T19:02:49.927Z,33.02
2023-04-22T19:05:55.817Z,32.91
2023-04-22T19:09:02.239Z,33.50
2023-04-22T19:12:14.785Z,33.11
2023-04-22T19:15:24.389Z,33.66
2023-04-22T19:18:29.841Z,34.17
2023-04-22T19:21:36.506Z,34.43
2023-04-22T19:24:42.443Z,33.80
2023-04-22T19:27:49.048Z,34.34
2023-04-22T19:30:59.770Z,34.63
2023-04-22T19:34:06.234Z,34.66
2023-04-22T19:37:11.978Z,34.61
2023-04-22T19:40:19.108Z,35.03
2023-04-22T19:43:24.595Z,35.50
2023-04-22T19:46:33.800Z,35.28
2023-04-22T19:49:41.439Z,35.30
2023-04-22T19:52:50.257Z,35.71
2023-04-22T19:55:56.629Z,35.27
2023-04-22T19:59:04.172Z,35.90
2023-04-22T20:02:14.517Z,35.68
2023-04-22T20:05:22.667Z,36.03
2023-04-22T20:08:31.282Z,36.54
2023-04-22T20:11:39.790Z,36.40
2023-04-22T20:14:47.368Z,36.72
2023-04-22T20:17:57.221Z,36.81
2023-04-22T20:21:04.166Z,36.80
2023-04-22T20:24:19.246Z,36.92
2023-04-22T20:27:25.885Z,37.02
2023-04-22T20:30:32.796Z,37.47
2023-04-22T20:33:41.557Z,37.46
2023-04-22T20:36:49.768Z,37.88
2023-04-22T20:39:58.032Z,37.46
2023-04-22T20:43:05.212Z,37.95
2023-04-22T20:46:11.258Z,38.12
2023-04-22T20:49:20.437Z,38.00
2023-04-22T20:52:26.207Z,37.93
2023-04-22T20:55:34.983Z,38.09
2023-04-22T20:58:41.793Z,38.26
2023-04-22T21:01:51.031Z,38.08
2023-04-22T21:05:02.508Z,38.62
2023-04-22T21:08:24.568Z,39.13
2023-04-22T21:11:31.341Z,38.63
2023-04-22T21:14:39.291Z,38.54
2023-04-22T21:17:56.867Z,38.72
2023-04-22T21:21:07.579Z,38.72
2023-04-22T21:24:14.544Z,38.54
2023-04-22T21:27:23.562Z,39.17
2023-04-22T21:30:29.980Z,39.07
2023-04-22T21:33:36.580Z,38.67
2023-04-22T21:36:44.889Z,38.77
2023-04-22T21:39:51.603Z,39.28
2023-04-22T21:42:57.316Z,39.54
2023-04-22T21:46:03.963Z,39.62
2023-04-22T21:49:09.714Z,39.73
2023-04-22T21:52:19.419Z,39.14
2023-04-22T21:55:25.197Z,40.00
2023-04-22T21:58:31.616Z,39.99
2023-04-22T22:01:37.169Z,40.66
2023-04-22T22:04:43.813Z,40.06
2023-04-22T22:07:53.223Z,40.69
2023-04-22T22:10:59.804Z,40.47
2023-04-22T22:14:05.361Z,40.04
2023-04-22T22:17:12.801Z,40.40
2023-04-22T22:20:20.726Z,41.09
2023-04-22T22:23:30.058Z,41.21
2023-04-22T22:26:36.746Z,40.90
2023-04-22T22:29:43.305Z,40.95
2023-04-22T22:32:49.123Z,41.66
2023-04-22T22:35:56.222Z,41.73
2023-04-22T22:39:04.795Z,41.83
2023-04-22T22:42:11.877Z,41.50
2023-04-22T22:45:17.478Z,42.11
2023-04-22T22:48:24.354Z,42.01
2023-04-22T22:51:32.922Z,42.68
2023-04-22T22:54:43.777Z,42.26
2023-04-22T22:57:49.877Z,42.22
2023-04-22T23:00:56.641Z,42.36
2023-04-22T23:04:02.812Z,42.46
2023-04-22T23:07:09.327Z,43.22
2023-04-22T23:10:17.658Z,42.51
2023-04-22T23:13:24.397Z,42.77
2023-04-22T23:16:30.137Z,42.68
2023-04-22T23:19:38.059Z,42.57
2023-04-22T23:22:45.958Z,43.63
2023-04-22T23:25:55.871Z,43.73
2023-04-22T23:29:02.297Z,43.25
2023-04-22T23:32:12.434Z,43.65
2023-04-22T23:35:18.633Z,42.52
2023-04-22T23:38:25.121Z,43.30
2023-04-22T23:41:33.632Z,42.32
2023-04-22T23:44:40.580Z,43.19
2023-04-22T23:47:46.398Z,43.01
2023-04-22T23:50:52.803Z,43.20
2023-04-22T23:53:58.314Z,42.67
2023-04-22T23:57:08.440Z,42.98
